Eureka の空港の天気 - METARとTAF

Eureka ( CWEU / ) - カナダ ヌナブト準州Eureka
飛行場実況気象(Metar)
観測時間07/17 23:00 CDT (07/18 04:00 UTC)
風向・風速南東 6m/s
視程10km以上
天気現象
少しの雲 雲底高度 460m
全天の4割程度の雲 雲底高度 1220m
全天の8割程度の雲 雲底高度 2130m
全天を覆う雲 雲底高度 3660m
気温7℃
湿度87%
気圧1008hPa
METARCWEU 180400Z 14011KT 15SM FEW015 SCT040 BKN070 OVC120 07/05 A2976 RMK SC1SC3AC3AC1 SLP080
過去の天気等 Google飛行場航空写真 Wunderground天気予報

過去48時間のMETAR

飛行場予報(TAF)
データがありません